Time;durP1;ratioP1;P1;durP2;ratioP2;P2;SDS_P1;SDS_P2;PMS_P1;PMS_P2;Temp;Humidity;BMP_temperature;BMP_pressure;BME280_temperature;BME280_humidity;BME280_pressure;Samples;Min_cycle;Max_cycle;Signal;HPM_P1;HPM_P2
2023/03/26 00:01:32;;;;;;;9.33;2.53;;;11.20;83.80;;;14.08;57.18;100305.50;5016480;28;20263;-62
2023/03/26 00:04:00;;;;;;;8.37;2.20;;;11.20;84.10;;;14.06;57.35;100311.00;5025420;28;20218;-62
2023/03/26 00:06:29;;;;;;;5.83;2.20;;;11.20;84.30;;;14.01;57.44;100307.34;5033223;28;20195;-61
2023/03/26 00:08:57;;;;;;;6.27;2.37;;;11.20;84.10;;;13.99;57.64;100312.03;5034481;28;20194;-60
2023/03/26 00:11:28;;;;;;;8.57;2.40;;;11.10;84.20;;;13.97;57.73;100314.09;5034239;28;20198;-61
2023/03/26 00:13:56;;;;;;;7.23;2.40;;;11.10;84.40;;;13.93;57.59;100307.59;5023464;28;20214;-60
2023/03/26 00:16:26;;;;;;;6.47;2.40;;;11.10;84.30;;;13.92;57.65;100316.53;5034110;28;20269;-60
2023/03/26 00:18:56;;;;;;;7.50;2.20;;;11.10;84.40;;;13.92;57.66;100316.53;5033932;28;20194;-63
2023/03/26 00:21:27;;;;;;;6.40;2.10;;;11.10;84.60;;;13.92;57.59;100327.94;5032376;28;20194;-58
2023/03/26 00:23:58;;;;;;;9.50;2.70;;;11.00;84.50;;;13.91;57.57;100328.13;5033795;28;20809;-62
2023/03/26 00:26:25;;;;;;;6.60;2.63;;;11.10;84.50;;;13.95;57.77;100332.00;5034508;28;20213;-61
2023/03/26 00:28:53;;;;;;;6.70;2.37;;;11.00;84.50;;;13.95;57.72;100329.38;5034457;28;20194;-58
2023/03/26 00:31:20;;;;;;;5.53;2.53;;;11.00;84.40;;;13.98;57.62;100334.22;5034011;28;20578;-61
2023/03/26 00:33:54;;;;;;;5.77;2.60;;;11.00;84.40;;;13.96;57.37;100339.72;5042280;28;20249;-59
2023/03/26 00:36:24;;;;;;;6.77;2.40;;;11.00;84.30;;;13.94;57.33;100340.94;5033044;28;20198;-61
2023/03/26 00:38:52;;;;;;;9.57;3.40;;;11.00;84.10;;;13.92;57.34;100353.56;5034610;28;20197;-60
2023/03/26 00:41:29;;;;;;;8.47;2.70;;;11.00;83.80;;;13.88;57.28;100345.22;5033376;28;20194;-61
2023/03/26 00:43:59;;;;;;;6.53;2.80;;;11.00;84.60;;;13.86;57.29;100354.41;5033859;28;20220;-59
2023/03/26 00:46:29;;;;;;;6.77;2.70;;;11.00;83.80;;;13.85;57.38;100358.06;5051219;28;20209;-59
2023/03/26 00:48:58;;;;;;;6.73;2.27;;;11.00;83.80;;;13.84;57.61;100353.78;5041820;28;20696;-60
2023/03/26 00:51:27;;;;;;;4.80;2.07;;;11.00;83.90;;;13.85;57.42;100355.41;5032954;28;20301;-60
2023/03/26 00:53:55;;;;;;;10.97;2.83;;;11.00;83.90;;;13.86;57.18;100357.84;5033332;28;20229;-60
2023/03/26 00:56:23;;;;;;;7.40;2.23;;;10.90;83.60;;;13.85;57.30;100352.78;5034387;28;20182;-60
2023/03/26 00:58:50;;;;;;;9.13;2.40;;;11.00;83.70;;;13.85;57.09;100358.88;5033643;28;20252;-60
2023/03/26 01:01:26;;;;;;;6.40;2.37;;;11.00;83.60;;;13.87;57.09;100356.03;5033982;28;20198;-58
2023/03/26 01:03:57;;;;;;;8.03;2.67;;;10.90;83.50;;;13.88;57.17;100355.00;5032751;28;20218;-62
2023/03/26 01:06:40;;;;;;;6.27;2.90;;;11.00;83.70;;;13.86;56.79;100349.13;5035428;28;20686;-61
2023/03/26 01:09:15;;;;;;;7.77;2.33;;;11.00;83.40;;;13.86;56.96;100349.91;5038074;28;20175;-62
2023/03/26 01:11:43;;;;;;;4.50;2.07;;;11.00;83.40;;;13.84;57.05;100356.44;5037895;28;20240;-60
2023/03/26 01:14:16;;;;;;;8.00;2.27;;;10.90;83.20;;;13.80;56.91;100352.56;5037105;28;20237;-62
2023/03/26 01:16:50;;;;;;;6.20;2.10;;;10.90;83.10;;;13.78;56.92;100357.25;5037025;28;20190;-60
2023/03/26 01:19:25;;;;;;;3.90;1.73;;;10.90;83.10;;;13.76;56.69;100359.31;5037565;28;20190;-62
2023/03/26 01:21:54;;;;;;;4.50;1.80;;;10.90;83.00;;;13.76;56.92;100356.66;5037607;28;20222;-60
2023/03/26 01:24:22;;;;;;;4.23;1.70;;;10.90;82.90;;;13.74;56.84;100361.34;5021748;28;20764;-60
2023/03/26 01:27:33;;;;;;;6.93;2.30;;;10.80;82.80;;;13.69;56.87;100358.50;5037460;28;20190;-62
2023/03/26 01:30:11;;;;;;;5.50;2.20;;;10.80;82.90;;;13.69;56.71;100358.50;5047693;28;20201;-61
2023/03/26 01:32:54;;;;;;;4.90;2.07;;;10.80;82.90;;;13.66;56.62;100358.88;5030495;28;20221;-59
2023/03/26 01:35:34;;;;;;;4.17;1.93;;;10.80;82.80;;;13.63;56.47;100359.28;5036985;28;20202;-61
2023/03/26 01:38:15;;;;;;;8.10;1.83;;;10.80;82.60;;;13.59;56.51;100358.91;5037457;28;20179;-61
2023/03/26 01:40:53;;;;;;;5.53;2.30;;;10.70;82.60;;;13.56;56.87;100357.47;5036917;28;20201;-61
2023/03/26 01:43:31;;;;;;;7.00;2.30;;;10.70;82.70;;;13.60;56.59;100362.34;5036906;28;20178;-57
2023/03/26 01:46:04;;;;;;;5.10;2.30;;;10.70;82.80;;;13.61;56.68;100350.75;5034077;28;20194;-61
2023/03/26 01:48:35;;;;;;;6.87;2.27;;;10.70;82.80;;;13.62;56.58;100360.31;5056999;28;20174;-62
2023/03/26 01:51:02;;;;;;;4.33;2.50;;;10.70;83.00;;;13.62;56.68;100352.38;5045987;28;20195;-62
2023/03/26 01:53:32;;;;;;;7.10;2.10;;;10.70;83.20;;;13.62;56.69;100352.38;5036592;28;20214;-59
2023/03/26 01:56:12;;;;;;;8.67;2.10;;;10.70;83.10;;;13.61;56.79;100353.38;5031007;28;20198;-61
2023/03/26 01:58:56;;;;;;;7.73;2.27;;;10.70;83.40;;;13.60;56.94;100365.78;5036649;28;20209;-61
2023/03/26 02:01:29;;;;;;;5.87;2.23;;;10.70;83.20;;;13.60;56.53;100360.50;5036686;28;20198;-61
2023/03/26 02:04:08;;;;;;;5.67;2.40;;;10.70;83.10;;;13.58;56.69;100358.06;5035603;28;20207;-61
2023/03/26 02:06:43;;;;;;;5.53;2.23;;;10.70;83.10;;;13.56;56.76;100360.13;5035618;28;20198;-60
2023/03/26 02:09:17;;;;;;;7.83;2.80;;;10.70;83.00;;;13.54;56.68;100356.84;5036452;28;20182;-59
2023/03/26 02:11:48;;;;;;;7.90;2.50;;;10.70;83.00;;;13.55;56.60;100365.59;5035446;28;20249;-62
2023/03/26 02:14:16;;;;;;;9.13;2.30;;;10.70;83.00;;;13.55;56.89;100352.34;5032819;28;20231;-60
2023/03/26 02:16:45;;;;;;;4.70;2.30;;;10.60;82.90;;;13.58;56.74;100358.06;5035457;28;20258;-60
2023/03/26 02:19:20;;;;;;;4.37;2.33;;;10.70;83.00;;;13.60;56.54;100359.72;5036115;28;20211;-61
2023/03/26 02:21:50;;;;;;;6.50;2.17;;;10.70;82.70;;;13.58;56.66;100363.38;5036554;28;20194;-63
2023/03/26 02:24:18;;;;;;;10.67;2.63;;;10.70;82.60;;;13.61;56.46;100350.75;5035392;28;20222;-59
2023/03/26 02:26:46;;;;;;;9.67;3.03;;;10.70;82.50;;;13.62;56.33;100347.09;5034931;28;20218;-58
2023/03/26 02:29:19;;;;;;;5.73;2.00;;;10.70;82.10;;;13.63;56.25;100344.25;5034297;28;20244;-61
2023/03/26 02:31:47;;;;;;;6.80;2.30;;;10.70;81.90;;;13.64;56.13;100350.34;5035843;28;20221;-60
2023/03/26 02:34:14;;;;;;;8.20;2.57;;;10.70;82.40;;;13.66;55.96;100340.38;5035632;28;20288;-59
2023/03/26 02:36:44;;;;;;;7.37;2.40;;;10.70;81.40;;;13.65;55.73;100344.03;5036134;28;20187;-60
2023/03/26 02:39:13;;;;;;;13.20;2.23;;;10.70;81.30;;;13.66;55.65;100340.38;5018395;28;20198;-59
2023/03/26 02:41:40;;;;;;;7.33;2.50;;;10.80;81.20;;;13.67;55.69;100342.81;5035747;28;20191;-59
2023/03/26 02:44:08;;;;;;;7.63;2.50;;;10.70;81.00;;;13.67;55.54;100340.16;5035450;28;20207;-59
2023/03/26 02:46:35;;;;;;;6.77;2.50;;;10.70;81.00;;;13.70;55.62;100339.75;5054848;28;20194;-61
2023/03/26 02:49:02;;;;;;;5.67;2.47;;;10.80;81.20;;;13.73;55.56;100334.06;5054390;28;20756;-62
2023/03/26 02:51:33;;;;;;;5.87;2.03;;;10.70;81.20;;;13.78;55.49;100333.44;5036276;28;20195;-60
2023/03/26 02:54:00;;;;;;;7.43;2.60;;;10.80;81.50;;;13.80;55.38;100334.06;5035466;28;20218;-58
2023/03/26 02:56:28;;;;;;;8.47;2.60;;;10.80;81.30;;;13.81;55.06;100338.34;5029154;28;20202;-57
2023/03/26 02:58:55;;;;;;;10.37;2.90;;;10.80;81.40;;;13.82;55.31;100332.00;5035761;28;20196;-61
2023/03/26 03:01:23;;;;;;;9.37;2.33;;;10.80;81.30;;;13.83;55.33;100333.66;5035783;28;20191;-59
2023/03/26 03:03:50;;;;;;;9.07;2.10;;;10.80;81.30;;;13.82;55.49;100332.00;5034712;28;20214;-59
2023/03/26 03:06:17;;;;;;;5.27;2.30;;;10.80;81.30;;;13.83;55.49;100333.66;5034811;28;20670;-57
2023/03/26 03:08:45;;;;;;;7.20;2.43;;;10.90;81.50;;;13.84;55.46;100325.50;5035139;28;20222;-62
2023/03/26 03:11:16;;;;;;;9.17;3.27;;;10.90;81.50;;;13.83;55.43;100318.59;5034941;28;20214;-60
2023/03/26 03:13:44;;;;;;;8.73;2.73;;;10.80;82.20;;;13.83;55.47;100326.53;5034830;28;20229;-63
2023/03/26 03:16:11;;;;;;;8.60;3.07;;;10.80;81.40;;;13.81;55.48;100330.41;5035794;28;20199;-60
2023/03/26 03:18:39;;;;;;;5.63;2.27;;;10.80;81.30;;;13.81;55.55;100320.59;5035694;28;20198;-59
2023/03/26 03:21:06;;;;;;;8.10;2.50;;;10.80;81.40;;;13.81;55.51;100319.81;5037477;28;20651;-61
2023/03/26 03:23:34;;;;;;;7.40;2.60;;;10.80;81.40;;;13.82;55.58;100322.25;5037640;28;20198;-59
2023/03/26 03:26:01;;;;;;;8.13;2.50;;;10.80;81.50;;;13.82;55.55;100322.25;5033532;28;20206;-59
2023/03/26 03:28:29;;;;;;;6.70;2.80;;;10.80;81.50;;;13.81;55.41;100325.13;5035068;28;20199;-61
2023/03/26 03:30:57;;;;;;;7.23;2.77;;;10.80;81.30;;;13.80;55.45;100328.75;5034786;28;20202;-63
2023/03/26 03:33:24;;;;;;;10.40;2.90;;;10.80;81.10;;;13.81;55.54;100330.41;5034397;28;20264;-60
2023/03/26 03:35:53;;;;;;;5.70;1.97;;;10.80;81.30;;;13.82;55.25;100327.53;5020780;28;20199;-61
2023/03/26 03:38:20;;;;;;;5.70;2.40;;;10.90;81.10;;;13.84;55.15;100330.78;5036051;28;20206;-61
2023/03/26 03:40:47;;;;;;;7.00;2.20;;;10.80;80.80;;;13.83;55.06;100329.19;5035960;28;20194;-62
2023/03/26 03:43:14;;;;;;;4.80;2.30;;;10.90;80.40;;;13.82;54.70;100332.00;5034551;28;20269;-61
2023/03/26 03:45:41;;;;;;;6.47;2.20;;;10.80;79.90;;;13.80;54.59;100331.41;5045803;28;20698;-58
2023/03/26 03:48:08;;;;;;;10.10;2.50;;;10.80;79.40;;;13.78;54.35;100334.28;5036891;28;20198;-60
2023/03/26 03:50:35;;;;;;;7.40;2.60;;;10.80;78.80;;;13.77;53.94;100324.69;5036181;28;20203;-63
2023/03/26 03:53:04;;;;;;;8.80;1.97;;;10.80;78.40;;;13.76;53.77;100330.19;5034558;28;20210;-63
2023/03/26 03:55:31;;;;;;;8.50;2.40;;;10.80;77.90;;;13.72;53.47;100335.06;5034289;28;20574;-59
2023/03/26 03:57:59;;;;;;;4.13;2.00;;;10.80;77.90;;;13.72;53.42;100332.44;5034903;28;20209;-58
2023/03/26 04:00:26;;;;;;;7.23;2.27;;;10.70;77.40;;;13.70;53.06;100333.66;5034459;28;20714;-64
2023/03/26 04:02:53;;;;;;;5.13;2.43;;;10.70;77.40;;;13.69;53.19;100332.03;5034036;28;20187;-65
2023/03/26 04:05:21;;;;;;;5.90;1.93;;;10.80;77.30;;;13.70;52.94;100331.00;5033819;28;20223;-60
2023/03/26 04:07:49;;;;;;;7.10;1.93;;;10.80;77.30;;;13.68;52.75;100336.50;5033877;28;20217;-60
2023/03/26 04:10:17;;;;;;;7.00;2.30;;;10.70;76.70;;;13.65;52.72;100336.09;5034608;28;20214;-60
2023/03/26 04:12:44;;;;;;;5.93;2.03;;;10.70;76.70;;;13.63;52.71;100328.38;5034444;28;20195;-60
2023/03/26 04:15:11;;;;;;;9.07;2.30;;;10.80;76.70;;;13.63;52.87;100328.38;5033748;28;20614;-59
2023/03/26 04:17:41;;;;;;;7.20;2.27;;;10.70;76.80;;;13.63;52.68;100327.56;5037305;28;20661;-62
2023/03/26 04:20:14;;;;;;;7.77;2.23;;;10.70;76.70;;;13.63;52.71;100316.97;5040489;28;20225;-61
2023/03/26 04:22:42;;;;;;;3.57;1.60;;;10.70;76.70;;;13.62;52.80;100321.44;5034518;28;20200;-61
2023/03/26 04:25:11;;;;;;;11.03;2.20;;;10.70;76.80;;;13.63;52.69;100327.56;5033549;28;20222;-61
2023/03/26 04:27:42;;;;;;;4.77;2.03;;;10.70;76.60;;;13.61;52.58;100324.31;5034323;28;20183;-60
2023/03/26 04:30:15;;;;;;;8.67;2.60;;;10.70;76.70;;;13.61;52.48;100324.31;5034380;28;20603;-61
2023/03/26 04:32:44;;;;;;;10.67;2.50;;;10.70;76.60;;;13.61;52.36;100319.00;5029984;28;20544;-60
2023/03/26 04:35:15;;;;;;;6.80;2.07;;;10.60;76.30;;;13.58;52.25;100314.94;5033182;28;20247;-60
2023/03/26 04:37:44;;;;;;;6.20;2.33;;;10.70;76.40;;;13.56;52.51;100320.44;5034404;28;20639;-61
2023/03/26 04:40:16;;;;;;;3.93;2.13;;;10.60;77.20;;;13.54;52.40;100325.13;5034193;28;20229;-61
2023/03/26 04:42:45;;;;;;;6.57;2.07;;;10.60;76.40;;;13.52;52.35;100313.94;5033862;28;20194;-61
2023/03/26 04:45:13;;;;;;;7.17;2.00;;;10.60;76.30;;;13.51;52.60;100314.94;5034718;28;20210;-61
2023/03/26 04:47:41;;;;;;;4.63;2.00;;;10.60;76.50;;;13.52;52.63;100313.94;5033918;28;20186;-60
2023/03/26 04:50:10;;;;;;;8.43;2.30;;;10.60;76.70;;;13.52;52.51;100316.59;5034205;28;20198;-57
2023/03/26 04:52:38;;;;;;;6.53;2.23;;;10.60;76.10;;;13.52;52.33;100308.66;5033374;28;20210;-60
2023/03/26 04:55:19;;;;;;;8.67;2.50;;;10.60;75.70;;;13.48;52.11;100304.78;5033363;28;20711;-61
2023/03/26 04:57:54;;;;;;;10.00;2.33;;;10.60;75.90;;;13.49;52.17;100314.34;5034926;28;20205;-60
2023/03/26 05:00:22;;;;;;;8.80;2.00;;;10.60;75.70;;;13.47;51.87;100313.75;5033635;28;20198;-61
2023/03/26 05:02:49;;;;;;;4.83;2.00;;;10.60;75.30;;;13.46;51.68;100316.56;5016658;28;20239;-57
2023/03/26 05:05:17;;;;;;;7.57;2.30;;;10.50;75.10;;;13.41;51.49;100314.53;5013741;28;20207;-59
2023/03/26 05:07:44;;;;;;;7.60;2.37;;;10.50;74.10;;;13.37;51.00;100323.09;5013531;28;20538;-61
2023/03/26 05:10:14;;;;;;;5.73;1.90;;;10.50;73.70;;;13.30;50.92;100324.91;5022369;28;20195;-59
2023/03/26 05:12:42;;;;;;;5.90;1.90;;;10.50;73.40;;;13.27;50.85;100323.47;5022363;28;20214;-60
2023/03/26 05:15:12;;;;;;;8.30;2.30;;;10.40;72.70;;;13.26;50.63;100331.63;5046584;28;20705;-60
2023/03/26 05:17:40;;;;;;;7.97;2.20;;;10.40;72.70;;;13.22;50.26;100325.91;5053327;28;20185;-61
2023/03/26 05:20:19;;;;;;;7.37;2.40;;;10.40;72.40;;;13.20;50.32;100321.84;5022634;28;20313;-65
2023/03/26 05:22:48;;;;;;;7.60;2.13;;;10.30;72.10;;;13.22;50.02;100320.63;5033683;28;20281;-61
2023/03/26 05:25:16;;;;;;;7.03;1.77;;;10.30;72.30;;;13.25;50.14;100325.50;5033200;28;20226;-63
2023/03/26 05:27:44;;;;;;;3.87;2.23;;;10.30;71.90;;;13.27;49.92;100323.47;5033954;28;20273;-61
2023/03/26 05:30:15;;;;;;;8.30;2.10;;;10.30;71.70;;;13.28;49.45;100324.31;5033667;28;20195;-60
2023/03/26 05:32:43;;;;;;;8.57;2.00;;;10.30;71.20;;;13.30;49.45;100319.63;5033727;28;20221;-60
2023/03/26 05:35:11;;;;;;;6.63;2.30;;;10.30;71.10;;;13.29;49.26;100316.16;5033435;28;20246;-61
2023/03/26 05:37:38;;;;;;;6.00;2.03;;;10.30;70.40;;;13.27;48.89;100320.84;5033454;28;20198;-60
2023/03/26 05:40:10;;;;;;;6.60;2.07;;;10.30;70.20;;;13.27;48.75;100320.84;5033724;28;20206;-62
2023/03/26 05:42:38;;;;;;;8.93;1.63;;;10.30;70.30;;;13.27;48.51;100325.31;5033795;28;20237;-62
2023/03/26 05:45:08;;;;;;;4.57;2.07;;;10.30;70.20;;;13.26;48.76;100321.88;5039233;28;20206;-61
2023/03/26 05:47:37;;;;;;;6.20;2.20;;;10.30;69.80;;;13.28;48.50;100325.13;5035887;28;20709;-62
2023/03/26 05:50:06;;;;;;;5.47;1.57;;;10.30;69.70;;;13.28;48.57;100330.41;5032154;28;20245;-60
2023/03/26 05:52:33;;;;;;;3.40;1.67;;;10.30;69.90;;;13.31;48.19;100329.97;5034469;28;20212;-60
2023/03/26 05:55:00;;;;;;;8.17;2.03;;;10.30;69.60;;;13.31;48.22;100319.41;5036267;28;20225;-61
2023/03/26 05:57:28;;;;;;;5.60;2.13;;;10.30;69.30;;;13.34;47.63;100329.59;5036957;28;20195;-65
2023/03/26 05:59:55;;;;;;;3.93;1.87;;;10.30;68.40;;;13.30;47.40;100328.38;5036932;28;20191;-60
2023/03/26 06:02:22;;;;;;;5.27;1.60;;;10.30;68.90;;;13.32;47.84;100323.69;5027204;28;20194;-59
2023/03/26 06:04:51;;;;;;;5.07;2.10;;;10.30;68.80;;;13.34;47.84;100324.28;5036130;28;20245;-60
2023/03/26 06:07:19;;;;;;;6.07;2.00;;;10.30;68.90;;;13.36;47.89;100332.03;5036261;28;20257;-61
2023/03/26 06:09:46;;;;;;;5.13;1.83;;;10.30;69.00;;;13.37;47.94;100323.91;5037272;28;20200;-61
2023/03/26 06:12:14;;;;;;;5.03;1.83;;;10.40;69.00;;;13.41;47.67;100324.28;5036904;28;20651;-61
2023/03/26 06:14:41;;;;;;;5.27;1.73;;;10.30;68.70;;;13.43;47.85;100317.78;5035880;28;20703;-58
2023/03/26 06:17:09;;;;;;;5.97;2.27;;;10.40;69.00;;;13.45;47.82;100321.03;5036214;28;20323;-61
2023/03/26 06:19:36;;;;;;;4.93;1.90;;;10.40;69.00;;;13.45;47.91;100313.09;5027209;28;20224;-59
2023/03/26 06:22:05;;;;;;;8.00;2.10;;;10.40;69.40;;;13.48;47.99;100310.06;5036569;28;20206;-61
2023/03/26 06:24:33;;;;;;;5.57;2.20;;;10.40;69.60;;;13.52;48.08;100315.78;5035916;28;20226;-58
2023/03/26 06:27:00;;;;;;;7.50;2.23;;;10.40;69.80;;;13.55;48.04;100310.88;5026616;28;20202;-61
2023/03/26 06:29:27;;;;;;;4.97;2.03;;;10.50;69.50;;;13.58;47.77;100314.94;5016240;28;20191;-58
2023/03/26 06:31:54;;;;;;;5.40;1.70;;;10.50;69.60;;;13.60;47.98;100312.13;5032874;28;20206;-59
2023/03/26 06:34:22;;;;;;;8.57;1.77;;;10.50;69.60;;;13.61;47.87;100316.38;5035326;28;20249;-59
2023/03/26 06:36:51;;;;;;;6.07;1.73;;;10.50;69.60;;;13.62;47.97;100320.66;5036540;28;20201;-58
2023/03/26 06:39:20;;;;;;;8.77;2.43;;;10.50;69.60;;;13.62;47.72;100313.50;5035996;28;20190;-61
2023/03/26 06:41:47;;;;;;;11.40;2.97;;;10.50;69.70;;;13.65;47.89;100320.22;5018224;28;20210;-59
2023/03/26 06:44:14;;;;;;;7.40;2.20;;;10.50;69.90;;;13.67;48.09;100313.72;5035205;28;20207;-60
2023/03/26 06:46:41;;;;;;;6.30;2.17;;;10.50;70.00;;;13.72;47.87;100323.66;5055422;28;20201;-59
2023/03/26 06:49:08;;;;;;;8.43;2.47;;;10.60;69.80;;;13.75;47.94;100325.91;5051275;28;20194;-61
2023/03/26 06:51:37;;;;;;;9.07;2.63;;;10.60;70.10;;;13.76;48.03;100333.66;5036084;28;20195;-62
2023/03/26 06:54:04;;;;;;;6.10;2.63;;;10.60;69.80;;;13.77;47.88;100329.97;5035037;28;20706;-61
2023/03/26 06:56:32;;;;;;;7.73;2.93;;;10.60;69.90;;;13.78;47.84;100336.09;5035907;28;20205;-61
2023/03/26 06:58:59;;;;;;;7.30;2.33;;;10.60;69.70;;;13.77;48.04;100335.28;5034926;28;20245;-61
2023/03/26 07:01:26;;;;;;;11.80;2.63;;;10.60;70.00;;;13.78;47.92;100333.44;5035889;28;20205;-62
2023/03/26 07:03:53;;;;;;;8.63;2.37;;;10.70;70.10;;;13.75;48.11;100336.50;5034718;28;20214;-57
2023/03/26 07:06:20;;;;;;;8.73;2.80;;;10.70;70.20;;;13.77;48.03;100335.28;5037177;28;20198;-61
2023/03/26 07:08:47;;;;;;;7.13;2.17;;;10.70;70.30;;;13.78;48.28;100336.91;5055588;28;20194;-59
2023/03/26 07:11:15;;;;;;;10.20;2.53;;;10.70;70.80;;;13.81;48.18;100333.06;5047642;28;20206;-61
2023/03/26 07:13:44;;;;;;;6.77;2.50;;;10.70;70.70;;;13.81;48.29;100330.41;5034500;28;20286;-60
2023/03/26 07:16:12;;;;;;;6.87;2.20;;;10.70;70.50;;;13.78;48.13;100331.63;5035335;28;20562;-61
2023/03/26 07:18:39;;;;;;;7.80;2.40;;;10.70;70.40;;;13.78;48.27;100325.50;5034983;28;20190;-59
2023/03/26 07:21:08;;;;;;;8.73;3.13;;;10.70;70.40;;;13.79;48.28;100321.84;5034846;28;20205;-58
2023/03/26 07:23:36;;;;;;;7.30;3.13;;;10.70;70.40;;;13.77;48.22;100318.59;5016688;28;20202;-61
2023/03/26 07:26:23;;;;;;;10.90;2.53;;;10.70;70.30;;;13.77;48.35;100321.22;5035255;28;20206;-61
2023/03/26 07:29:00;;;;;;;6.73;2.90;;;10.70;70.50;;;13.80;48.28;100319.00;5035010;28;20194;-59
2023/03/26 07:31:43;;;;;;;12.40;2.80;;;10.70;70.50;;;13.84;48.42;100316.75;5034459;28;20194;-59
2023/03/26 07:34:34;;;;;;;7.27;2.27;;;10.70;70.80;;;13.84;48.18;100316.75;5035113;28;20230;-60
2023/03/26 07:37:11;;;;;;;11.27;2.70;;;10.70;71.20;;;13.84;48.12;100319.38;5035493;28;20202;-61
2023/03/26 07:39:48;;;;;;;9.27;2.63;;;10.70;70.30;;;13.81;48.16;100319.81;5037711;28;20595;-60
2023/03/26 07:42:34;;;;;;;13.87;5.33;;;10.80;70.30;;;13.77;47.28;100321.22;5040361;28;20191;-58
2023/03/26 07:45:18;;;;;;;18.63;6.23;;;10.70;68.20;;;13.71;46.76;100325.53;5042974;28;20213;-60
2023/03/26 07:47:48;;;;;;;11.97;5.10;;;10.70;67.20;;;13.65;46.71;100321.03;5055354;28;20332;-61
2023/03/26 07:50:18;;;;;;;7.20;2.63;;;10.60;67.20;;;13.61;46.69;100319.84;5046653;28;20309;-60
2023/03/26 07:52:46;;;;;;;8.70;2.30;;;10.60;67.40;;;13.58;46.82;100321.06;5035092;28;20265;-59
2023/03/26 07:55:15;;;;;;;12.23;2.87;;;10.60;67.60;;;13.58;46.49;100315.75;5034172;28;20226;-60
2023/03/26 07:58:37;;;;;;;6.40;2.37;;;10.60;67.10;;;13.54;46.48;100314.56;5034414;28;20535;-59
2023/03/26 08:01:13;;;;;;;11.47;2.70;;;10.60;67.10;;;13.63;46.61;100307.22;5034117;28;20199;-60
2023/03/26 08:04:04;;;;;;;9.47;3.40;;;10.60;67.10;;;13.72;45.93;100315.75;5045691;28;20308;-61
2023/03/26 08:06:58;;;;;;;4.60;2.40;;;10.60;66.00;;;13.79;45.47;100316.53;5037712;28;20292;-60
2023/03/26 08:09:37;;;;;;;8.07;2.50;;;10.60;65.10;;;13.84;45.30;100319.38;5034096;28;20175;-62
2023/03/26 08:12:22;;;;;;;6.40;2.37;;;10.70;65.20;;;13.87;44.96;100313.69;5022795;28;20194;-61
2023/03/26 08:15:00;;;;;;;9.13;2.90;;;10.70;64.60;;;13.93;45.00;100307.59;5024472;28;20214;-60
2023/03/26 08:17:38;;;;;;;9.30;2.10;;;10.80;64.70;;;13.99;44.38;100312.03;5034517;28;20186;-63
2023/03/26 08:20:25;;;;;;;9.10;2.63;;;10.80;63.70;;;14.03;44.09;100307.94;5034099;28;20248;-62
2023/03/26 08:23:01;;;;;;;8.00;2.90;;;10.90;63.20;;;14.10;43.74;100314.03;5035001;28;20530;-60
2023/03/26 08:25:33;;;;;;;9.13;2.80;;;10.90;62.50;;;14.14;43.79;100307.34;5033850;28;20210;-61
2023/03/26 08:28:31;;;;;;;7.77;2.47;;;10.90;63.00;;;14.17;43.11;100306.91;5034358;28;20221;-60
2023/03/26 08:31:01;;;;;;;6.03;2.43;;;11.00;62.10;;;14.22;43.12;100318.50;5033527;28;20202;-60
2023/03/26 08:33:31;;;;;;;8.27;2.63;;;11.00;62.40;;;14.22;42.87;100317.69;5033791;28;20202;-61
2023/03/26 08:35:58;;;;;;;13.70;2.97;;;11.00;61.40;;;14.23;43.09;100324.59;5032734;28;20235;-60
2023/03/26 08:38:25;;;;;;;8.83;2.33;;;11.00;61.10;;;14.24;42.76;100312.97;5034696;28;20195;-60
2023/03/26 08:41:43;;;;;;;10.07;3.03;;;11.00;61.60;;;14.22;42.80;100312.38;5033761;28;20195;-59
2023/03/26 08:44:51;;;;;;;7.90;1.87;;;11.10;61.50;;;14.25;42.92;100320.72;5033311;28;20229;-59
2023/03/26 08:48:21;;;;;;;9.60;3.03;;;11.10;61.80;;;14.29;42.54;100318.47;5033975;28;20210;-60
2023/03/26 08:51:27;;;;;;;7.60;2.07;;;11.10;61.10;;;14.31;42.79;100321.75;5034997;28;20198;-62
2023/03/26 08:54:42;;;;;;;7.30;2.80;;;11.20;60.90;;;14.37;42.75;100315.63;5033760;28;20213;-60
2023/03/26 08:57:45;;;;;;;11.23;3.13;;;11.20;61.00;;;14.46;42.61;100322.31;5032621;28;20217;-58
2023/03/26 09:00:40;;;;;;;7.80;2.03;;;11.30;61.60;;;14.55;42.46;100318.41;5042581;28;20193;-60
2023/03/26 09:03:49;;;;;;;7.13;2.47;;;11.30;60.70;;;14.58;42.45;100323.28;5011323;28;20214;-61
2023/03/26 09:06:57;;;;;;;10.20;3.37;;;11.40;60.60;;;14.60;42.14;100326.53;5033232;28;20206;-61
2023/03/26 09:10:08;;;;;;;8.53;2.67;;;11.40;60.20;;;14.69;42.39;100322.59;5024903;28;20700;-62
2023/03/26 09:13:36;;;;;;;12.70;2.77;;;11.50;60.70;;;14.80;42.01;100321.13;5016384;28;20209;-61
2023/03/26 09:17:00;;;;;;;9.57;3.03;;;11.50;59.70;;;14.84;41.60;100323.16;4977448;28;20247;-62
2023/03/26 09:20:25;;;;;;;7.07;2.30;;;11.60;59.90;;;14.95;41.54;100323.50;5034227;28;20228;-63
2023/03/26 09:23:31;;;;;;;7.73;2.60;;;11.70;59.50;;;15.04;41.17;100327.53;5033564;28;20183;-58
2023/03/26 09:26:24;;;;;;;6.97;2.50;;;11.80;59.50;;;15.10;41.27;100321.34;5033510;28;20202;-61
2023/03/26 09:29:58;;;;;;;5.90;2.17;;;11.80;59.10;;;15.10;39.99;100324.81;5019862;28;20186;-62
2023/03/26 09:33:12;;;;;;;13.20;3.63;;;11.90;58.10;;;15.06;39.88;100325.47;5019357;28;20202;-61
2023/03/26 09:36:04;;;;;;;9.13;2.87;;;11.90;57.70;;;15.06;40.04;100323.63;5016667;28;20227;-61
2023/03/26 09:38:44;;;;;;;7.33;2.70;;;11.80;57.50;;;15.01;39.75;100333.25;5017747;28;20219;-62
2023/03/26 09:41:20;;;;;;;8.53;2.40;;;11.80;56.80;;;14.98;40.00;100328.34;4984170;28;20214;-62
2023/03/26 09:44:30;;;;;;;7.17;2.37;;;11.80;57.20;;;15.01;39.73;100330.59;5017500;28;20279;-61
2023/03/26 09:47:30;;;;;;;7.17;2.23;;;11.80;57.10;;;15.02;39.65;100340.19;5037715;28;20226;-63
2023/03/26 09:50:21;;;;;;;9.13;2.33;;;11.80;57.00;;;15.02;39.18;100341.00;5036896;28;20194;-61
2023/03/26 09:53:17;;;;;;;4.23;2.03;;;11.80;56.40;;;15.03;39.60;100334.66;5036071;28;20185;-62
2023/03/26 09:56:07;;;;;;;6.03;2.70;;;11.80;56.70;;;15.08;39.61;100334.00;5038239;28;20275;-59
2023/03/26 09:59:00;;;;;;;6.27;2.80;;;11.90;57.40;;;15.15;39.27;100334.78;5017206;28;20187;-62
2023/03/26 10:01:41;;;;;;;11.57;2.47;;;11.90;56.10;;;15.21;39.23;100334.75;5017209;28;20670;-61
2023/03/26 10:04:50;;;;;;;7.43;2.97;;;11.90;55.90;;;15.29;39.13;100336.31;5016613;28;20215;-61
2023/03/26 10:07:47;;;;;;;10.60;2.50;;;12.00;56.30;;;15.39;38.73;100331.34;5032001;28;20655;-57
2023/03/26 10:10:25;;;;;;;7.47;2.50;;;12.00;55.40;;;15.40;38.16;100343.59;5036863;28;20189;-62
2023/03/26 10:13:05;;;;;;;13.43;3.30;;;12.10;55.30;;;15.39;38.44;100341.97;5031010;28;20210;-60
2023/03/26 10:16:05;;;;;;;5.67;2.60;;;12.10;55.30;;;15.36;38.59;100329.13;5034780;28;20218;-65
2023/03/26 10:18:47;;;;;;;7.23;2.57;;;12.10;54.50;;;15.41;38.01;100334.59;5018647;28;20198;-62
2023/03/26 10:21:27;;;;;;;10.23;2.83;;;12.10;54.70;;;15.54;38.48;100331.88;5035923;28;20186;-63
2023/03/26 10:24:23;;;;;;;8.50;3.53;;;12.20;55.60;;;15.64;38.21;100326.91;5036350;28;20218;-64
2023/03/26 10:27:29;;;;;;;6.23;2.60;;;12.20;55.10;;;15.68;38.10;100320.13;5036453;28;20655;-59
2023/03/26 10:30:35;;;;;;;9.87;3.53;;;12.30;54.60;;;15.74;37.55;100329.84;5036879;28;20194;-59
2023/03/26 10:33:21;;;;;;;9.73;3.50;;;12.40;54.70;;;15.80;38.15;100323.69;5033047;28;20566;-61
2023/03/26 10:36:12;;;;;;;6.60;3.00;;;12.40;54.20;;;15.87;37.30;100324.44;5036184;28;20620;-61
2023/03/26 10:39:14;;;;;;;7.10;2.63;;;12.50;54.20;;;15.94;37.56;100319.88;5026921;28;20213;-61
2023/03/26 10:42:22;;;;;;;10.80;3.20;;;12.50;53.60;;;16.08;36.82;100326.69;5035922;28;20601;-57
2023/03/26 10:45:13;;;;;;;6.40;2.73;;;12.60;52.80;;;16.11;36.80;100320.94;5039698;28;20209;-60
2023/03/26 10:48:17;;;;;;;8.90;4.20;;;12.60;52.90;;;16.13;36.72;100321.53;5040946;28;20208;-62
2023/03/26 10:50:56;;;;;;;8.47;2.97;;;12.70;52.70;;;16.22;36.84;100316.72;5029313;28;20211;-65